createdAt,value
2022-12-16T00:00:19.621Z,36.33
2022-12-16T00:02:47.254Z,39.03
2022-12-16T00:05:14.898Z,38.10
2022-12-16T00:07:42.329Z,39.00
2022-12-16T00:10:10.096Z,37.80
2022-12-16T00:12:37.633Z,39.47
2022-12-16T00:15:05.773Z,38.03
2022-12-16T00:17:33.252Z,38.33
2022-12-16T00:20:00.744Z,37.67
2022-12-16T00:22:28.141Z,36.73
2022-12-16T00:24:55.638Z,35.57
2022-12-16T00:27:23.073Z,32.83
2022-12-16T00:29:50.492Z,33.30
2022-12-16T00:32:17.979Z,33.60
2022-12-16T00:34:45.447Z,33.17
2022-12-16T00:37:13.579Z,32.07
2022-12-16T00:39:41.007Z,32.17
2022-12-16T00:42:08.411Z,31.57
2022-12-16T00:44:35.850Z,32.67
2022-12-16T00:47:03.259Z,33.57
2022-12-16T00:49:30.761Z,31.70
2022-12-16T00:51:58.185Z,32.50
2022-12-16T00:54:25.691Z,31.00
2022-12-16T00:56:53.087Z,32.07
2022-12-16T00:59:21.257Z,31.63
2022-12-16T01:01:48.968Z,31.67
2022-12-16T01:04:16.518Z,31.10
2022-12-16T01:06:43.908Z,35.43
2022-12-16T01:09:11.289Z,30.63
2022-12-16T01:11:38.747Z,29.33
2022-12-16T01:14:06.245Z,30.43
2022-12-16T01:16:35.264Z,31.53
2022-12-16T01:19:02.859Z,28.87
2022-12-16T01:21:30.462Z,29.50
2022-12-16T01:23:57.844Z,28.67
2022-12-16T01:26:25.296Z,28.13
2022-12-16T01:28:52.659Z,28.20
2022-12-16T01:31:23.538Z,27.20
2022-12-16T01:33:51.363Z,26.40
2022-12-16T01:36:19.097Z,28.27
2022-12-16T01:38:47.299Z,29.10
2022-12-16T01:41:17.031Z,27.63
2022-12-16T01:43:47.150Z,28.00
2022-12-16T01:46:22.803Z,26.67
2022-12-16T01:49:06.988Z,28.03
2022-12-16T01:51:38.597Z,27.87
2022-12-16T01:54:20.311Z,26.80
2022-12-16T01:57:03.309Z,26.33
2022-12-16T01:59:34.460Z,25.33
2022-12-16T02:02:03.885Z,25.90
2022-12-16T02:04:31.508Z,25.43
2022-12-16T02:07:00.664Z,24.70
2022-12-16T02:09:29.384Z,22.40
2022-12-16T02:12:11.614Z,25.17
2022-12-16T02:15:17.084Z,25.17
2022-12-16T02:18:00.743Z,23.73
2022-12-16T02:20:59.127Z,23.97
2022-12-16T02:23:57.224Z,24.80
2022-12-16T02:26:36.260Z,23.83
2022-12-16T02:29:20.925Z,24.53
2022-12-16T02:32:06.669Z,24.00
2022-12-16T02:35:14.583Z,23.80
2022-12-16T02:38:01.211Z,26.13
2022-12-16T02:40:38.255Z,23.43
2022-12-16T02:43:17.883Z,24.97
2022-12-16T02:45:46.500Z,25.97
2022-12-16T02:48:13.926Z,23.83
2022-12-16T02:50:49.688Z,25.40
2022-12-16T02:53:19.133Z,24.57
2022-12-16T02:56:12.858Z,24.90
2022-12-16T02:58:50.873Z,26.47
2022-12-16T03:01:27.835Z,25.97
2022-12-16T03:04:28.828Z,25.40
2022-12-16T03:06:58.058Z,25.80
2022-12-16T03:09:32.687Z,24.87
2022-12-16T03:12:05.120Z,25.87
2022-12-16T03:14:35.091Z,26.77
2022-12-16T03:17:04.249Z,26.30
2022-12-16T03:19:32.311Z,24.47
2022-12-16T03:22:13.004Z,27.10
2022-12-16T03:24:41.336Z,26.57
2022-12-16T03:27:32.378Z,27.00
2022-12-16T03:30:18.412Z,26.87
2022-12-16T03:32:59.641Z,28.07
2022-12-16T03:35:59.380Z,28.77
2022-12-16T03:38:28.272Z,27.33
2022-12-16T03:40:57.482Z,26.73
2022-12-16T03:43:25.481Z,28.87
2022-12-16T03:46:00.555Z,27.60
2022-12-16T03:48:27.976Z,28.40
2022-12-16T03:50:55.772Z,28.53
2022-12-16T03:53:26.541Z,28.53
2022-12-16T03:55:55.028Z,27.83
2022-12-16T03:58:22.547Z,28.03
2022-12-16T04:00:50.099Z,29.70
2022-12-16T04:03:17.757Z,28.20
2022-12-16T04:05:46.512Z,29.13
2022-12-16T04:08:14.101Z,28.80
2022-12-16T04:11:00.332Z,29.50
2022-12-16T04:13:46.315Z,27.50
2022-12-16T04:16:35.934Z,29.53
2022-12-16T04:19:22.072Z,29.10
2022-12-16T04:22:08.701Z,27.30
2022-12-16T04:24:36.474Z,28.40
2022-12-16T04:27:22.652Z,27.40
2022-12-16T04:30:08.645Z,28.80
2022-12-16T04:32:54.623Z,26.70
2022-12-16T04:35:40.667Z,26.97
2022-12-16T04:38:26.994Z,26.83
2022-12-16T04:41:12.950Z,27.77
2022-12-16T04:43:59.285Z,27.33
2022-12-16T04:46:45.690Z,25.80
2022-12-16T04:49:31.858Z,26.07
2022-12-16T04:52:17.608Z,26.93
2022-12-16T04:55:03.539Z,27.10
2022-12-16T04:57:49.385Z,26.13
2022-12-16T05:00:35.295Z,25.17
2022-12-16T05:03:21.263Z,25.60
2022-12-16T05:06:07.338Z,27.13
2022-12-16T05:08:53.359Z,27.20
2022-12-16T05:11:39.396Z,27.63
2022-12-16T05:14:25.433Z,26.87
2022-12-16T05:17:11.313Z,26.83
2022-12-16T05:19:57.236Z,28.80
2022-12-16T05:22:43.353Z,30.73
2022-12-16T05:25:29.192Z,31.73
2022-12-16T05:28:14.999Z,32.17
2022-12-16T05:31:01.166Z,29.67
2022-12-16T05:33:47.295Z,30.87
2022-12-16T05:36:33.077Z,28.40
2022-12-16T05:39:19.255Z,28.37
2022-12-16T05:42:05.248Z,27.37
2022-12-16T05:44:51.482Z,27.40
2022-12-16T05:47:38.266Z,27.00
2022-12-16T05:50:25.384Z,30.83
2022-12-16T05:53:13.552Z,29.00
2022-12-16T05:56:00.631Z,26.63
2022-12-16T05:58:48.172Z,25.70
2022-12-16T06:01:34.158Z,25.27
2022-12-16T06:04:20.345Z,24.53
2022-12-16T06:07:06.463Z,23.50
2022-12-16T06:09:56.564Z,24.60
2022-12-16T06:12:43.387Z,22.73
2022-12-16T06:15:29.531Z,24.17
2022-12-16T06:18:15.578Z,21.87
2022-12-16T06:21:02.231Z,21.43
2022-12-16T06:23:48.530Z,21.73
2022-12-16T06:26:35.061Z,24.63
2022-12-16T06:29:21.081Z,25.73
2022-12-16T06:32:06.927Z,27.80
2022-12-16T06:34:52.752Z,30.90
2022-12-16T06:37:38.578Z,30.10
2022-12-16T06:40:25.575Z,30.30
2022-12-16T06:43:11.387Z,29.10
2022-12-16T06:45:57.351Z,28.47
2022-12-16T06:48:43.450Z,29.30
2022-12-16T06:51:29.348Z,29.60
2022-12-16T06:54:15.521Z,33.73
2022-12-16T06:57:01.338Z,33.40
2022-12-16T06:59:47.192Z,31.77
2022-12-16T07:02:33.526Z,31.27
2022-12-16T07:05:19.726Z,29.93
2022-12-16T07:08:11.521Z,37.30
2022-12-16T07:11:04.864Z,31.73
2022-12-16T07:14:01.501Z,31.47
2022-12-16T07:16:47.555Z,33.13
2022-12-16T07:19:34.938Z,32.07
2022-12-16T07:22:21.131Z,29.67
2022-12-16T07:25:07.169Z,28.17
2022-12-16T07:27:53.368Z,27.60
2022-12-16T07:30:58.946Z,28.47
2022-12-16T07:33:45.147Z,28.30
2022-12-16T07:36:30.964Z,28.53
2022-12-16T07:39:17.329Z,28.80
2022-12-16T07:42:03.098Z,28.63
2022-12-16T07:44:48.708Z,29.50
2022-12-16T07:47:34.716Z,28.67
2022-12-16T07:50:20.585Z,30.03
2022-12-16T07:53:17.099Z,31.80
2022-12-16T07:56:03.803Z,29.60
2022-12-16T07:58:49.925Z,33.23
2022-12-16T08:01:35.806Z,45.80
2022-12-16T08:04:22.167Z,44.03
2022-12-16T08:07:08.213Z,43.33
2022-12-16T08:09:54.419Z,53.47
2022-12-16T08:12:40.169Z,37.43
2022-12-16T08:15:27.008Z,36.87
2022-12-16T08:18:13.287Z,37.57
2022-12-16T08:20:59.275Z,38.93
2022-12-16T08:23:45.245Z,34.73
2022-12-16T08:26:31.607Z,36.37
2022-12-16T08:29:43.206Z,34.67
2022-12-16T08:32:24.632Z,38.23
2022-12-16T08:35:10.681Z,46.57
2022-12-16T08:37:56.590Z,41.83
2022-12-16T08:40:42.865Z,39.63
2022-12-16T08:43:28.778Z,38.83
2022-12-16T08:46:15.576Z,36.67
2022-12-16T08:49:01.721Z,36.70
2022-12-16T08:51:48.540Z,40.37
2022-12-16T08:54:34.821Z,37.33
2022-12-16T08:57:21.013Z,36.93
2022-12-16T09:00:06.921Z,37.50
2022-12-16T09:02:53.042Z,37.83
2022-12-16T09:05:41.825Z,37.07
2022-12-16T09:08:27.888Z,37.80
2022-12-16T09:11:14.034Z,37.40
2022-12-16T09:14:00.021Z,38.50
2022-12-16T09:16:46.168Z,44.53
2022-12-16T09:19:32.006Z,40.70
2022-12-16T09:22:17.936Z,38.50
2022-12-16T09:25:04.135Z,38.53
2022-12-16T09:27:49.895Z,38.40
2022-12-16T09:30:35.876Z,46.47
2022-12-16T09:33:22.069Z,41.10
2022-12-16T09:36:07.835Z,50.57
2022-12-16T09:38:54.128Z,42.50
2022-12-16T09:41:46.569Z,44.53
2022-12-16T09:44:57.234Z,42.33
2022-12-16T09:48:02.799Z,40.57
2022-12-16T09:50:50.400Z,39.30
2022-12-16T09:53:41.166Z,40.50
2022-12-16T09:56:40.304Z,39.83
2022-12-16T09:59:33.317Z,40.93
2022-12-16T10:02:37.399Z,40.47
2022-12-16T10:05:34.192Z,40.47
2022-12-16T10:08:52.181Z,42.37
2022-12-16T10:12:23.039Z,40.53
2022-12-16T10:15:33.132Z,40.97
2022-12-16T10:18:24.356Z,41.80
2022-12-16T10:21:13.896Z,40.93
2022-12-16T10:24:27.423Z,40.60
2022-12-16T10:27:25.883Z,40.27
2022-12-16T10:30:11.785Z,40.83
2022-12-16T10:33:05.523Z,39.00
2022-12-16T10:36:11.745Z,40.30
2022-12-16T10:39:08.096Z,42.97
2022-12-16T10:41:58.281Z,41.77
2022-12-16T10:44:54.557Z,41.73
2022-12-16T10:47:41.944Z,38.00
2022-12-16T10:50:33.286Z,40.63
2022-12-16T10:53:35.036Z,40.73
2022-12-16T10:56:54.928Z,37.03
2022-12-16T10:59:53.912Z,39.20
2022-12-16T11:02:44.941Z,41.17
2022-12-16T11:05:52.188Z,39.67
2022-12-16T11:08:55.710Z,40.27
2022-12-16T11:11:50.280Z,40.23
2022-12-16T11:15:05.802Z,40.87
2022-12-16T11:17:51.178Z,43.00
2022-12-16T11:20:44.037Z,41.20
2022-12-16T11:23:39.666Z,44.87
2022-12-16T11:26:36.006Z,41.90
2022-12-16T11:29:28.284Z,41.60
2022-12-16T11:32:31.147Z,42.17
2022-12-16T11:35:19.701Z,42.73
2022-12-16T11:38:08.174Z,43.50
2022-12-16T11:40:56.838Z,45.47
2022-12-16T11:43:44.234Z,46.47
2022-12-16T11:46:38.862Z,44.07
2022-12-16T11:49:49.548Z,44.07
2022-12-16T11:52:39.353Z,44.07
2022-12-16T11:59:11.912Z,44.80
2022-12-16T12:02:19.616Z,44.93
2022-12-16T12:05:10.446Z,44.67
2022-12-16T12:08:19.577Z,44.23
2022-12-16T12:11:24.668Z,42.63
2022-12-16T12:14:24.222Z,37.57
2022-12-16T12:17:25.198Z,42.70
2022-12-16T12:20:10.749Z,46.53
2022-12-16T12:22:58.866Z,45.23
2022-12-16T12:26:16.029Z,46.67
2022-12-16T12:29:34.708Z,45.17
2022-12-16T12:32:37.447Z,46.00
2022-12-16T12:35:45.456Z,46.13
2022-12-16T12:38:37.995Z,46.97
2022-12-16T12:42:00.641Z,44.80
2022-12-16T12:45:10.295Z,45.40
2022-12-16T12:48:07.603Z,49.47
2022-12-16T12:51:11.256Z,45.27
2022-12-16T12:54:33.262Z,46.30
2022-12-16T12:57:22.695Z,47.27
2022-12-16T13:00:45.124Z,46.60
2022-12-16T13:03:46.789Z,47.00
2022-12-16T13:06:34.733Z,46.00
2022-12-16T13:09:20.914Z,46.17
2022-12-16T13:12:25.512Z,46.83
2022-12-16T13:15:24.247Z,47.90
2022-12-16T13:18:38.472Z,46.13
2022-12-16T13:21:56.875Z,45.70
2022-12-16T13:24:59.083Z,44.70
2022-12-16T13:27:48.080Z,48.67
2022-12-16T13:30:40.962Z,45.97
2022-12-16T13:33:49.992Z,45.67
2022-12-16T13:36:37.998Z,46.53
2022-12-16T13:39:46.691Z,47.00
2022-12-16T13:42:51.162Z,52.00
2022-12-16T13:46:23.626Z,49.57
2022-12-16T13:49:09.779Z,50.27
2022-12-16T13:51:58.187Z,45.97
2022-12-16T13:54:59.709Z,46.00
2022-12-16T13:57:49.427Z,49.10
2022-12-16T14:00:40.468Z,49.57
2022-12-16T14:04:07.331Z,48.80
2022-12-16T14:06:56.729Z,50.63
2022-12-16T14:10:00.281Z,48.10
2022-12-16T14:13:28.977Z,50.43
2022-12-16T14:16:40.277Z,52.07
2022-12-16T14:19:50.930Z,53.20
2022-12-16T14:23:17.878Z,53.43
2022-12-16T14:26:17.429Z,48.73
2022-12-16T14:29:06.504Z,48.67
2022-12-16T14:32:03.013Z,50.70
2022-12-16T14:34:52.854Z,49.17
2022-12-16T14:37:48.422Z,47.43
2022-12-16T14:40:51.932Z,49.70
2022-12-16T14:43:41.447Z,49.33
2022-12-16T14:46:45.603Z,51.60
2022-12-16T14:49:47.488Z,49.17
2022-12-16T14:52:45.641Z,47.97
2022-12-16T14:55:38.705Z,50.57
2022-12-16T14:58:38.636Z,48.20
2022-12-16T15:01:40.142Z,48.70
2022-12-16T15:04:38.171Z,48.50
2022-12-16T15:07:31.500Z,49.37
2022-12-16T15:10:19.363Z,48.27
2022-12-16T15:13:07.296Z,46.97
2022-12-16T15:15:59.946Z,45.10
2022-12-16T15:19:01.065Z,46.70
2022-12-16T15:21:47.533Z,45.17
2022-12-16T15:24:39.775Z,43.03
2022-12-16T15:27:42.398Z,44.43
2022-12-16T15:30:50.058Z,44.17
2022-12-16T15:33:39.542Z,43.97
2022-12-16T15:36:45.022Z,45.23
2022-12-16T15:39:42.467Z,43.27
2022-12-16T15:42:47.033Z,44.07
2022-12-16T15:45:49.648Z,48.73
2022-12-16T15:48:51.200Z,45.70
2022-12-16T15:52:08.907Z,45.80
2022-12-16T15:55:13.081Z,44.83
2022-12-16T15:57:58.875Z,44.33
2022-12-16T16:00:50.105Z,45.23
2022-12-16T16:03:45.944Z,45.90
2022-12-16T16:06:46.150Z,45.37
2022-12-16T16:09:52.318Z,48.47
2022-12-16T16:12:41.201Z,49.20
2022-12-16T16:15:31.581Z,49.77
2022-12-16T16:18:22.383Z,48.17
2022-12-16T16:21:10.293Z,49.03
2022-12-16T16:23:56.401Z,49.57
2022-12-16T16:26:46.584Z,53.00
2022-12-16T16:29:32.993Z,47.20
2022-12-16T16:32:20.832Z,50.77
2022-12-16T16:35:09.504Z,53.97
2022-12-16T16:37:55.458Z,53.70
2022-12-16T16:40:51.536Z,52.73
2022-12-16T16:43:37.813Z,53.80
2022-12-16T16:46:51.903Z,52.17
2022-12-16T16:49:50.826Z,49.27
2022-12-16T16:52:40.628Z,48.00
2022-12-16T16:55:33.029Z,48.97
2022-12-16T16:58:18.864Z,48.50
2022-12-16T17:01:05.044Z,49.23
2022-12-16T17:03:51.468Z,50.53
2022-12-16T17:06:37.585Z,48.90
2022-12-16T17:09:23.373Z,48.07
2022-12-16T17:12:09.199Z,49.83
2022-12-16T17:14:54.921Z,46.50
2022-12-16T17:17:40.870Z,49.00
2022-12-16T17:20:32.337Z,47.67
2022-12-16T17:23:18.532Z,48.47
2022-12-16T17:26:04.915Z,49.53
2022-12-16T17:28:51.083Z,49.03
2022-12-16T17:31:36.883Z,50.60
2022-12-16T17:34:23.204Z,54.77
2022-12-16T17:37:09.003Z,52.63
2022-12-16T17:40:05.429Z,53.43
2022-12-16T17:42:51.329Z,56.17
2022-12-16T17:45:44.752Z,54.13
2022-12-16T17:48:30.924Z,58.70
2022-12-16T17:51:16.766Z,58.37
2022-12-16T17:54:09.726Z,57.90
2022-12-16T17:57:00.651Z,63.87
2022-12-16T17:59:50.412Z,58.50
2022-12-16T18:02:52.986Z,60.73
2022-12-16T18:05:44.493Z,57.60
2022-12-16T18:08:30.854Z,56.57
2022-12-16T18:11:17.652Z,57.57
2022-12-16T18:14:03.827Z,59.40
2022-12-16T18:16:49.825Z,60.83
2022-12-16T18:19:36.428Z,59.77
2022-12-16T18:22:23.264Z,60.00
2022-12-16T18:25:09.072Z,62.27
2022-12-16T18:27:55.844Z,62.37
2022-12-16T18:30:41.908Z,63.23
2022-12-16T18:33:29.848Z,63.23
2022-12-16T18:36:16.101Z,60.90
2022-12-16T18:39:02.124Z,62.90
2022-12-16T18:41:48.127Z,62.60
2022-12-16T18:44:33.992Z,60.03
2022-12-16T18:47:19.733Z,64.13
2022-12-16T18:50:05.718Z,62.50
2022-12-16T18:52:51.442Z,64.63
2022-12-16T18:55:37.343Z,63.60
2022-12-16T19:01:31.267Z,59.63
2022-12-16T19:04:17.474Z,60.70
2022-12-16T19:07:03.869Z,67.67
2022-12-16T19:09:49.836Z,63.80
2022-12-16T19:12:35.575Z,64.57
2022-12-16T19:15:21.493Z,72.17
2022-12-16T19:18:07.238Z,65.50
2022-12-16T19:20:53.245Z,62.67
2022-12-16T19:23:39.689Z,66.07
2022-12-16T19:26:25.846Z,72.40
2022-12-16T19:29:12.055Z,62.07
2022-12-16T19:31:57.929Z,58.87
2022-12-16T19:34:44.061Z,60.47
2022-12-16T19:37:30.172Z,61.47
2022-12-16T19:40:16.007Z,58.27
2022-12-16T19:43:01.916Z,57.77
2022-12-16T19:45:48.216Z,61.30
2022-12-16T19:48:34.305Z,59.57
2022-12-16T19:51:21.822Z,59.13
2022-12-16T19:54:07.681Z,59.03
2022-12-16T19:56:55.178Z,56.90
2022-12-16T19:59:41.504Z,60.03
2022-12-16T20:02:31.905Z,58.13
2022-12-16T20:05:17.876Z,58.10
2022-12-16T20:08:03.655Z,56.97
2022-12-16T20:11:06.381Z,57.60
2022-12-16T20:13:52.123Z,57.33
2022-12-16T20:16:41.982Z,57.63
2022-12-16T20:19:28.007Z,58.97
2022-12-16T20:22:16.439Z,58.60
2022-12-16T20:25:02.620Z,56.23
2022-12-16T20:27:48.476Z,57.47
2022-12-16T20:30:34.724Z,60.03
2022-12-16T20:33:20.704Z,65.70
2022-12-16T20:36:17.679Z,63.50
2022-12-16T20:39:03.507Z,63.53
2022-12-16T20:41:49.452Z,62.13
2022-12-16T20:44:35.627Z,60.17
2022-12-16T20:47:21.922Z,63.37
2022-12-16T20:50:08.042Z,65.53
2022-12-16T20:52:55.170Z,64.03
2022-12-16T20:55:42.433Z,66.73
2022-12-16T20:58:28.201Z,66.53
2022-12-16T21:01:15.535Z,63.47
2022-12-16T21:04:01.835Z,65.60
2022-12-16T21:06:47.950Z,62.63
2022-12-16T21:09:33.788Z,64.97
2022-12-16T21:12:19.888Z,65.10
2022-12-16T21:15:06.256Z,68.20
2022-12-16T21:17:52.139Z,65.60
2022-12-16T21:20:38.407Z,66.67
2022-12-16T21:23:26.341Z,65.60
2022-12-16T21:26:12.374Z,68.63
2022-12-16T21:28:58.621Z,64.57
2022-12-16T21:31:44.271Z,69.93
2022-12-16T21:34:30.163Z,73.43
2022-12-16T21:37:16.047Z,69.27
2022-12-16T21:40:18.762Z,69.23
2022-12-16T21:43:04.619Z,64.77
2022-12-16T21:45:50.528Z,67.17
2022-12-16T21:48:36.220Z,67.43
2022-12-16T21:51:22.203Z,66.43
2022-12-16T21:54:09.739Z,68.30
2022-12-16T21:56:56.657Z,67.17
2022-12-16T21:59:42.946Z,66.03
2022-12-16T22:02:32.773Z,68.03
2022-12-16T22:05:18.878Z,64.73
2022-12-16T22:08:05.215Z,70.30
2022-12-16T22:10:51.212Z,68.53
2022-12-16T22:13:37.887Z,64.00
2022-12-16T22:16:24.272Z,67.83
2022-12-16T22:19:14.363Z,67.27
2022-12-16T22:22:00.200Z,65.93
2022-12-16T22:24:45.900Z,63.93
2022-12-16T22:27:31.704Z,64.77
2022-12-16T22:30:17.535Z,66.50
2022-12-16T22:33:04.933Z,64.60
2022-12-16T22:35:51.240Z,63.47
2022-12-16T22:38:37.211Z,62.43
2022-12-16T22:41:23.590Z,63.10
2022-12-16T22:44:09.812Z,63.93
2022-12-16T22:46:56.154Z,63.27
2022-12-16T22:49:42.384Z,61.53
2022-12-16T22:52:28.285Z,63.47
2022-12-16T22:55:14.192Z,62.60
2022-12-16T22:58:00.479Z,62.80
2022-12-16T23:00:46.401Z,62.33
2022-12-16T23:03:36.753Z,61.20
2022-12-16T23:06:22.945Z,61.83
2022-12-16T23:09:09.739Z,61.00
2022-12-16T23:11:59.411Z,62.63
2022-12-16T23:14:45.980Z,61.23
2022-12-16T23:17:32.416Z,59.70
2022-12-16T23:20:18.257Z,62.30
2022-12-16T23:23:04.139Z,63.03
2022-12-16T23:25:49.988Z,61.83
2022-12-16T23:28:35.768Z,62.47
2022-12-16T23:31:22.052Z,63.17
2022-12-16T23:34:08.224Z,62.17
2022-12-16T23:36:54.036Z,63.23
2022-12-16T23:39:42.499Z,62.17
2022-12-16T23:42:28.324Z,63.47
2022-12-16T23:45:14.375Z,61.97
2022-12-16T23:48:00.181Z,63.70
2022-12-16T23:50:45.933Z,61.53
2022-12-16T23:53:31.894Z,61.17
2022-12-16T23:56:19.384Z,61.47
2022-12-16T23:59:28.754Z,61.63
